sensor_id;sensor_type;location;lat;lon;timestamp;temperature;humidity
63017;DHT22;50274;45.640;11.756;2023-04-24T00:00:56;16.10;77.70
63017;DHT22;50274;45.640;11.756;2023-04-24T00:03:23;16.10;77.60
63017;DHT22;50274;45.640;11.756;2023-04-24T00:05:49;16.10;77.60
63017;DHT22;50274;45.640;11.756;2023-04-24T00:08:15;16.10;77.50
63017;DHT22;50274;45.640;11.756;2023-04-24T00:10:41;16.00;77.50
63017;DHT22;50274;45.640;11.756;2023-04-24T00:13:07;16.10;77.50
63017;DHT22;50274;45.640;11.756;2023-04-24T00:15:33;16.10;77.30
63017;DHT22;50274;45.640;11.756;2023-04-24T00:17:59;16.00;77.20
63017;DHT22;50274;45.640;11.756;2023-04-24T00:20:27;16.10;77.20
63017;DHT22;50274;45.640;11.756;2023-04-24T00:22:55;16.10;77.00
63017;DHT22;50274;45.640;11.756;2023-04-24T00:25:21;16.00;76.90
63017;DHT22;50274;45.640;11.756;2023-04-24T00:27:47;16.00;76.90
63017;DHT22;50274;45.640;11.756;2023-04-24T00:30:12;16.00;76.70
63017;DHT22;50274;45.640;11.756;2023-04-24T00:32:38;16.00;76.60
63017;DHT22;50274;45.640;11.756;2023-04-24T00:35:05;16.00;76.70
63017;DHT22;50274;45.640;11.756;2023-04-24T00:37:31;16.00;76.60
63017;DHT22;50274;45.640;11.756;2023-04-24T00:39:57;16.00;76.60
63017;DHT22;50274;45.640;11.756;2023-04-24T00:42:23;16.00;76.50
63017;DHT22;50274;45.640;11.756;2023-04-24T00:44:49;16.00;76.40
63017;DHT22;50274;45.640;11.756;2023-04-24T00:47:16;16.10;76.30
63017;DHT22;50274;45.640;11.756;2023-04-24T00:49:41;16.10;76.20
63017;DHT22;50274;45.640;11.756;2023-04-24T00:52:07;16.10;76.20
63017;DHT22;50274;45.640;11.756;2023-04-24T00:54:35;16.10;76.20
63017;DHT22;50274;45.640;11.756;2023-04-24T00:57:02;16.10;76.20
63017;DHT22;50274;45.640;11.756;2023-04-24T00:59:29;16.10;76.20
63017;DHT22;50274;45.640;11.756;2023-04-24T01:01:56;16.10;76.10
63017;DHT22;50274;45.640;11.756;2023-04-24T01:04:22;16.10;76.10
63017;DHT22;50274;45.640;11.756;2023-04-24T01:06:48;16.10;76.10
63017;DHT22;50274;45.640;11.756;2023-04-24T01:09:16;16.00;76.10
63017;DHT22;50274;45.640;11.756;2023-04-24T01:11:42;16.00;76.10
63017;DHT22;50274;45.640;11.756;2023-04-24T01:14:08;16.00;76.10
63017;DHT22;50274;45.640;11.756;2023-04-24T01:16:35;16.00;76.10
63017;DHT22;50274;45.640;11.756;2023-04-24T01:19:01;16.00;75.90
63017;DHT22;50274;45.640;11.756;2023-04-24T01:21:29;16.00;75.90
63017;DHT22;50274;45.640;11.756;2023-04-24T01:23:56;16.00;75.70
63017;DHT22;50274;45.640;11.756;2023-04-24T01:26:22;16.00;75.70
63017;DHT22;50274;45.640;11.756;2023-04-24T01:28:48;16.00;75.60
63017;DHT22;50274;45.640;11.756;2023-04-24T01:31:15;16.00;75.40
63017;DHT22;50274;45.640;11.756;2023-04-24T01:33:42;16.00;75.30
63017;DHT22;50274;45.640;11.756;2023-04-24T01:36:10;16.00;75.20
63017;DHT22;50274;45.640;11.756;2023-04-24T01:38:36;15.90;75.10
63017;DHT22;50274;45.640;11.756;2023-04-24T01:41:02;15.90;75.10
63017;DHT22;50274;45.640;11.756;2023-04-24T01:43:29;15.90;75.00
63017;DHT22;50274;45.640;11.756;2023-04-24T01:45:55;15.90;75.00
63017;DHT22;50274;45.640;11.756;2023-04-24T01:48:20;16.00;74.80
63017;DHT22;50274;45.640;11.756;2023-04-24T01:50:46;15.90;74.70
63017;DHT22;50274;45.640;11.756;2023-04-24T01:53:12;15.90;74.60
63017;DHT22;50274;45.640;11.756;2023-04-24T01:55:38;15.90;74.40
63017;DHT22;50274;45.640;11.756;2023-04-24T01:58:04;15.90;74.30
63017;DHT22;50274;45.640;11.756;2023-04-24T02:00:30;15.90;74.20
63017;DHT22;50274;45.640;11.756;2023-04-24T02:02:56;15.90;74.10
63017;DHT22;50274;45.640;11.756;2023-04-24T02:05:21;15.80;74.00
63017;DHT22;50274;45.640;11.756;2023-04-24T02:07:47;15.80;73.90
63017;DHT22;50274;45.640;11.756;2023-04-24T02:10:13;15.80;73.80
63017;DHT22;50274;45.640;11.756;2023-04-24T02:12:39;15.90;73.70
63017;DHT22;50274;45.640;11.756;2023-04-24T02:15:05;15.80;73.60
63017;DHT22;50274;45.640;11.756;2023-04-24T02:17:31;15.80;73.40
63017;DHT22;50274;45.640;11.756;2023-04-24T02:19:57;15.80;73.20
63017;DHT22;50274;45.640;11.756;2023-04-24T02:22:23;15.80;73.00
63017;DHT22;50274;45.640;11.756;2023-04-24T02:24:49;15.90;72.90
63017;DHT22;50274;45.640;11.756;2023-04-24T02:27:15;15.80;72.90
63017;DHT22;50274;45.640;11.756;2023-04-24T02:29:41;15.90;72.90
63017;DHT22;50274;45.640;11.756;2023-04-24T02:32:06;15.80;72.90
63017;DHT22;50274;45.640;11.756;2023-04-24T02:34:34;15.80;72.90
63017;DHT22;50274;45.640;11.756;2023-04-24T02:37:00;15.80;72.70
63017;DHT22;50274;45.640;11.756;2023-04-24T02:39:26;15.90;72.50
63017;DHT22;50274;45.640;11.756;2023-04-24T02:41:52;15.90;72.60
63017;DHT22;50274;45.640;11.756;2023-04-24T02:44:17;15.90;72.40
63017;DHT22;50274;45.640;11.756;2023-04-24T02:46:43;15.90;72.40
63017;DHT22;50274;45.640;11.756;2023-04-24T02:49:09;15.90;72.20
63017;DHT22;50274;45.640;11.756;2023-04-24T02:51:37;15.80;72.00
63017;DHT22;50274;45.640;11.756;2023-04-24T02:54:09;15.80;72.00
63017;DHT22;50274;45.640;11.756;2023-04-24T02:56:36;15.80;71.80
63017;DHT22;50274;45.640;11.756;2023-04-24T02:59:02;15.80;71.60
63017;DHT22;50274;45.640;11.756;2023-04-24T03:01:28;15.80;71.50
63017;DHT22;50274;45.640;11.756;2023-04-24T03:03:54;15.80;71.40
63017;DHT22;50274;45.640;11.756;2023-04-24T03:06:20;15.80;71.30
63017;DHT22;50274;45.640;11.756;2023-04-24T03:08:46;15.70;71.10
63017;DHT22;50274;45.640;11.756;2023-04-24T03:11:12;15.80;71.10
63017;DHT22;50274;45.640;11.756;2023-04-24T03:13:38;15.80;70.90
63017;DHT22;50274;45.640;11.756;2023-04-24T03:16:04;15.80;70.80
63017;DHT22;50274;45.640;11.756;2023-04-24T03:18:30;15.80;70.60
63017;DHT22;50274;45.640;11.756;2023-04-24T03:20:56;15.70;70.60
63017;DHT22;50274;45.640;11.756;2023-04-24T03:23:22;15.80;70.40
63017;DHT22;50274;45.640;11.756;2023-04-24T03:25:48;15.80;70.30
63017;DHT22;50274;45.640;11.756;2023-04-24T03:28:14;15.80;70.00
63017;DHT22;50274;45.640;11.756;2023-04-24T03:30:40;15.80;69.80
63017;DHT22;50274;45.640;11.756;2023-04-24T03:33:05;15.80;69.70
63017;DHT22;50274;45.640;11.756;2023-04-24T03:35:31;15.80;69.50
63017;DHT22;50274;45.640;11.756;2023-04-24T03:37:57;15.80;69.40
63017;DHT22;50274;45.640;11.756;2023-04-24T03:40:23;15.80;69.60
63017;DHT22;50274;45.640;11.756;2023-04-24T03:42:49;15.70;69.60
63017;DHT22;50274;45.640;11.756;2023-04-24T03:45:15;15.80;69.40
63017;DHT22;50274;45.640;11.756;2023-04-24T03:47:41;15.80;69.30
63017;DHT22;50274;45.640;11.756;2023-04-24T03:50:07;15.80;69.50
63017;DHT22;50274;45.640;11.756;2023-04-24T03:52:33;15.80;69.60
63017;DHT22;50274;45.640;11.756;2023-04-24T03:54:58;15.80;69.60
63017;DHT22;50274;45.640;11.756;2023-04-24T03:57:24;15.80;69.70
63017;DHT22;50274;45.640;11.756;2023-04-24T03:59:50;15.80;69.80
63017;DHT22;50274;45.640;11.756;2023-04-24T04:02:16;15.70;70.10
63017;DHT22;50274;45.640;11.756;2023-04-24T04:04:42;15.70;70.50
63017;DHT22;50274;45.640;11.756;2023-04-24T04:07:08;15.70;70.70
63017;DHT22;50274;45.640;11.756;2023-04-24T04:09:34;15.70;71.00
63017;DHT22;50274;45.640;11.756;2023-04-24T04:12:01;15.60;71.00
63017;DHT22;50274;45.640;11.756;2023-04-24T04:14:27;15.60;71.20
63017;DHT22;50274;45.640;11.756;2023-04-24T04:16:53;15.60;71.40
63017;DHT22;50274;45.640;11.756;2023-04-24T04:19:19;15.60;71.50
63017;DHT22;50274;45.640;11.756;2023-04-24T04:21:45;15.60;71.60
63017;DHT22;50274;45.640;11.756;2023-04-24T04:24:11;15.60;71.90
63017;DHT22;50274;45.640;11.756;2023-04-24T04:26:37;15.50;72.10
63017;DHT22;50274;45.640;11.756;2023-04-24T04:29:04;15.60;72.40
63017;DHT22;50274;45.640;11.756;2023-04-24T04:31:29;15.50;72.50
63017;DHT22;50274;45.640;11.756;2023-04-24T04:33:56;15.60;73.00
63017;DHT22;50274;45.640;11.756;2023-04-24T04:36:21;15.50;73.10
63017;DHT22;50274;45.640;11.756;2023-04-24T04:38:49;15.50;73.20
63017;DHT22;50274;45.640;11.756;2023-04-24T04:41:15;15.50;73.30
63017;DHT22;50274;45.640;11.756;2023-04-24T04:43:42;15.50;73.40
63017;DHT22;50274;45.640;11.756;2023-04-24T04:46:08;15.50;73.60
63017;DHT22;50274;45.640;11.756;2023-04-24T04:48:36;15.50;73.80
63017;DHT22;50274;45.640;11.756;2023-04-24T04:51:02;15.40;73.80
63017;DHT22;50274;45.640;11.756;2023-04-24T04:53:28;15.40;74.00
63017;DHT22;50274;45.640;11.756;2023-04-24T04:55:54;15.40;74.10
63017;DHT22;50274;45.640;11.756;2023-04-24T04:58:20;15.40;74.40
63017;DHT22;50274;45.640;11.756;2023-04-24T05:00:45;15.30;74.80
63017;DHT22;50274;45.640;11.756;2023-04-24T05:03:11;15.30;75.50
63017;DHT22;50274;45.640;11.756;2023-04-24T05:05:37;15.30;76.10
63017;DHT22;50274;45.640;11.756;2023-04-24T05:08:07;15.30;77.10
63017;DHT22;50274;45.640;11.756;2023-04-24T05:10:33;15.20;77.20
63017;DHT22;50274;45.640;11.756;2023-04-24T05:12:59;15.10;77.60
63017;DHT22;50274;45.640;11.756;2023-04-24T05:15:25;15.00;77.90
63017;DHT22;50274;45.640;11.756;2023-04-24T05:17:51;15.00;78.60
63017;DHT22;50274;45.640;11.756;2023-04-24T05:20:16;14.90;78.90
63017;DHT22;50274;45.640;11.756;2023-04-24T05:22:43;14.80;79.00
63017;DHT22;50274;45.640;11.756;2023-04-24T05:25:09;14.80;79.50
63017;DHT22;50274;45.640;11.756;2023-04-24T05:27:34;14.80;80.10
63017;DHT22;50274;45.640;11.756;2023-04-24T05:30:00;14.70;80.20
63017;DHT22;50274;45.640;11.756;2023-04-24T05:32:26;14.70;80.20
63017;DHT22;50274;45.640;11.756;2023-04-24T05:34:52;14.60;80.60
63017;DHT22;50274;45.640;11.756;2023-04-24T05:37:18;14.60;80.60
63017;DHT22;50274;45.640;11.756;2023-04-24T05:39:44;14.60;80.30
63017;DHT22;50274;45.640;11.756;2023-04-24T05:42:10;14.60;80.20
63017;DHT22;50274;45.640;11.756;2023-04-24T05:44:36;14.60;80.10
63017;DHT22;50274;45.640;11.756;2023-04-24T05:47:01;14.60;80.10
63017;DHT22;50274;45.640;11.756;2023-04-24T05:49:27;14.60;80.00
63017;DHT22;50274;45.640;11.756;2023-04-24T05:51:53;14.70;80.00
63017;DHT22;50274;45.640;11.756;2023-04-24T05:54:19;14.70;80.00
63017;DHT22;50274;45.640;11.756;2023-04-24T05:56:44;14.70;80.00
63017;DHT22;50274;45.640;11.756;2023-04-24T05:59:10;14.70;79.90
63017;DHT22;50274;45.640;11.756;2023-04-24T06:01:36;14.70;79.90
63017;DHT22;50274;45.640;11.756;2023-04-24T06:04:03;14.80;79.80
63017;DHT22;50274;45.640;11.756;2023-04-24T06:06:33;14.80;79.90
63017;DHT22;50274;45.640;11.756;2023-04-24T06:09:00;14.80;79.70
63017;DHT22;50274;45.640;11.756;2023-04-24T06:11:27;14.80;79.70
63017;DHT22;50274;45.640;11.756;2023-04-24T06:13:53;14.80;79.60
63017;DHT22;50274;45.640;11.756;2023-04-24T06:16:19;14.90;79.50
63017;DHT22;50274;45.640;11.756;2023-04-24T06:18:45;14.90;79.70
63017;DHT22;50274;45.640;11.756;2023-04-24T06:21:12;14.90;79.60
63017;DHT22;50274;45.640;11.756;2023-04-24T06:23:38;14.90;79.60
63017;DHT22;50274;45.640;11.756;2023-04-24T06:26:04;14.90;80.20
63017;DHT22;50274;45.640;11.756;2023-04-24T06:28:30;14.90;80.20
63017;DHT22;50274;45.640;11.756;2023-04-24T06:30:56;14.80;80.20
63017;DHT22;50274;45.640;11.756;2023-04-24T06:33:22;14.70;80.30
63017;DHT22;50274;45.640;11.756;2023-04-24T06:35:47;14.70;80.40
63017;DHT22;50274;45.640;11.756;2023-04-24T06:38:13;14.70;80.40
63017;DHT22;50274;45.640;11.756;2023-04-24T06:40:42;14.70;80.40
63017;DHT22;50274;45.640;11.756;2023-04-24T06:43:08;14.70;80.40
63017;DHT22;50274;45.640;11.756;2023-04-24T06:45:33;14.70;80.40
63017;DHT22;50274;45.640;11.756;2023-04-24T06:47:59;14.70;80.50
63017;DHT22;50274;45.640;11.756;2023-04-24T06:50:25;14.70;80.90
63017;DHT22;50274;45.640;11.756;2023-04-24T06:52:51;14.60;81.20
63017;DHT22;50274;45.640;11.756;2023-04-24T06:55:17;14.50;81.30
63017;DHT22;50274;45.640;11.756;2023-04-24T06:57:43;14.40;81.50
63017;DHT22;50274;45.640;11.756;2023-04-24T07:00:10;14.30;81.60
63017;DHT22;50274;45.640;11.756;2023-04-24T07:02:36;14.30;81.80
63017;DHT22;50274;45.640;11.756;2023-04-24T07:05:04;14.20;81.70
63017;DHT22;50274;45.640;11.756;2023-04-24T07:07:30;14.10;81.70
63017;DHT22;50274;45.640;11.756;2023-04-24T07:09:57;14.10;82.00
63017;DHT22;50274;45.640;11.756;2023-04-24T07:12:23;14.10;82.20
63017;DHT22;50274;45.640;11.756;2023-04-24T07:14:49;14.10;82.00
63017;DHT22;50274;45.640;11.756;2023-04-24T07:17:15;14.10;82.00
63017;DHT22;50274;45.640;11.756;2023-04-24T07:19:42;14.20;82.10
63017;DHT22;50274;45.640;11.756;2023-04-24T07:22:07;14.20;82.10
63017;DHT22;50274;45.640;11.756;2023-04-24T07:24:33;14.20;82.00
63017;DHT22;50274;45.640;11.756;2023-04-24T07:26:59;14.20;81.90
63017;DHT22;50274;45.640;11.756;2023-04-24T07:29:26;14.20;81.90
63017;DHT22;50274;45.640;11.756;2023-04-24T07:31:52;14.20;81.70
63017;DHT22;50274;45.640;11.756;2023-04-24T07:34:19;14.10;81.50
63017;DHT22;50274;45.640;11.756;2023-04-24T07:36:45;14.10;81.20
63017;DHT22;50274;45.640;11.756;2023-04-24T07:39:11;14.10;80.50
63017;DHT22;50274;45.640;11.756;2023-04-24T07:41:37;14.00;80.40
63017;DHT22;50274;45.640;11.756;2023-04-24T07:44:03;13.90;80.50
63017;DHT22;50274;45.640;11.756;2023-04-24T07:46:30;13.80;80.40
63017;DHT22;50274;45.640;11.756;2023-04-24T07:48:56;13.80;80.10
63017;DHT22;50274;45.640;11.756;2023-04-24T07:51:22;13.80;79.50
63017;DHT22;50274;45.640;11.756;2023-04-24T07:53:47;13.70;79.70
63017;DHT22;50274;45.640;11.756;2023-04-24T07:56:13;13.70;80.20
63017;DHT22;50274;45.640;11.756;2023-04-24T07:58:39;13.70;80.10
63017;DHT22;50274;45.640;11.756;2023-04-24T08:01:05;13.80;79.90
63017;DHT22;50274;45.640;11.756;2023-04-24T08:03:31;13.80;79.80
63017;DHT22;50274;45.640;11.756;2023-04-24T08:05:57;13.80;79.80
63017;DHT22;50274;45.640;11.756;2023-04-24T08:08:23;13.80;80.20
63017;DHT22;50274;45.640;11.756;2023-04-24T08:10:49;13.80;80.50
63017;DHT22;50274;45.640;11.756;2023-04-24T08:13:15;13.80;80.70
63017;DHT22;50274;45.640;11.756;2023-04-24T08:15:41;13.80;80.60
63017;DHT22;50274;45.640;11.756;2023-04-24T08:18:07;13.90;80.70
63017;DHT22;50274;45.640;11.756;2023-04-24T08:20:33;13.90;80.30
63017;DHT22;50274;45.640;11.756;2023-04-24T08:22:59;14.00;79.50
63017;DHT22;50274;45.640;11.756;2023-04-24T08:25:25;14.10;78.80
63017;DHT22;50274;45.640;11.756;2023-04-24T08:27:51;14.30;78.70
63017;DHT22;50274;45.640;11.756;2023-04-24T08:30:17;14.40;78.70
63017;DHT22;50274;45.640;11.756;2023-04-24T08:32:43;14.50;78.00
63017;DHT22;50274;45.640;11.756;2023-04-24T08:35:09;14.60;75.60
63017;DHT22;50274;45.640;11.756;2023-04-24T08:37:35;14.80;75.00
63017;DHT22;50274;45.640;11.756;2023-04-24T08:40:15;14.90;74.60
63017;DHT22;50274;45.640;11.756;2023-04-24T08:42:44;15.00;73.90
63017;DHT22;50274;45.640;11.756;2023-04-24T08:45:12;15.20;73.50
63017;DHT22;50274;45.640;11.756;2023-04-24T08:47:39;15.30;73.50
63017;DHT22;50274;45.640;11.756;2023-04-24T08:50:06;15.40;73.30
63017;DHT22;50274;45.640;11.756;2023-04-24T08:52:34;15.50;73.10
63017;DHT22;50274;45.640;11.756;2023-04-24T08:55:01;15.60;73.00
63017;DHT22;50274;45.640;11.756;2023-04-24T08:57:28;15.70;73.30
63017;DHT22;50274;45.640;11.756;2023-04-24T08:59:55;15.80;73.10
63017;DHT22;50274;45.640;11.756;2023-04-24T09:02:22;16.00;73.10
63017;DHT22;50274;45.640;11.756;2023-04-24T09:04:49;16.00;73.00
63017;DHT22;50274;45.640;11.756;2023-04-24T09:07:16;16.10;73.10
63017;DHT22;50274;45.640;11.756;2023-04-24T09:09:44;16.20;73.20
63017;DHT22;50274;45.640;11.756;2023-04-24T09:12:11;16.20;73.30
63017;DHT22;50274;45.640;11.756;2023-04-24T09:14:37;16.30;73.30
63017;DHT22;50274;45.640;11.756;2023-04-24T09:17:08;16.30;73.40
63017;DHT22;50274;45.640;11.756;2023-04-24T09:19:34;16.40;73.20
63017;DHT22;50274;45.640;11.756;2023-04-24T09:22:05;16.50;73.20
63017;DHT22;50274;45.640;11.756;2023-04-24T09:24:31;16.50;72.70
63017;DHT22;50274;45.640;11.756;2023-04-24T09:26:58;16.50;72.60
63017;DHT22;50274;45.640;11.756;2023-04-24T09:29:24;16.60;72.30
63017;DHT22;50274;45.640;11.756;2023-04-24T09:31:50;16.60;72.70
63017;DHT22;50274;45.640;11.756;2023-04-24T09:34:22;16.70;73.60
63017;DHT22;50274;45.640;11.756;2023-04-24T09:36:49;16.70;72.40
63017;DHT22;50274;45.640;11.756;2023-04-24T09:39:16;16.80;72.30
63017;DHT22;50274;45.640;11.756;2023-04-24T09:41:53;16.80;71.40
63017;DHT22;50274;45.640;11.756;2023-04-24T09:44:27;16.70;69.60
63017;DHT22;50274;45.640;11.756;2023-04-24T09:46:58;16.70;68.60
63017;DHT22;50274;45.640;11.756;2023-04-24T09:49:28;16.60;68.40
63017;DHT22;50274;45.640;11.756;2023-04-24T09:52:09;16.60;68.90
63017;DHT22;50274;45.640;11.756;2023-04-24T09:54:36;16.60;68.90
63017;DHT22;50274;45.640;11.756;2023-04-24T09:57:02;16.60;68.70
63017;DHT22;50274;45.640;11.756;2023-04-24T09:59:29;16.70;67.80
63017;DHT22;50274;45.640;11.756;2023-04-24T10:01:55;16.70;67.70
63017;DHT22;50274;45.640;11.756;2023-04-24T10:04:23;16.70;67.80
63017;DHT22;50274;45.640;11.756;2023-04-24T10:06:51;16.80;67.90
63017;DHT22;50274;45.640;11.756;2023-04-24T10:09:19;16.80;67.20
63017;DHT22;50274;45.640;11.756;2023-04-24T10:11:47;16.80;67.00
63017;DHT22;50274;45.640;11.756;2023-04-24T10:14:19;16.90;66.90
63017;DHT22;50274;45.640;11.756;2023-04-24T10:16:49;17.00;66.60
63017;DHT22;50274;45.640;11.756;2023-04-24T10:19:16;17.10;66.50
63017;DHT22;50274;45.640;11.756;2023-04-24T10:21:44;17.20;65.00
63017;DHT22;50274;45.640;11.756;2023-04-24T10:24:14;17.30;63.20
63017;DHT22;50274;45.640;11.756;2023-04-24T10:26:42;17.30;63.20
63017;DHT22;50274;45.640;11.756;2023-04-24T10:29:09;17.40;63.40
63017;DHT22;50274;45.640;11.756;2023-04-24T10:31:37;17.40;63.40
63017;DHT22;50274;45.640;11.756;2023-04-24T10:34:05;17.50;63.50
63017;DHT22;50274;45.640;11.756;2023-04-24T10:36:35;17.60;62.20
63017;DHT22;50274;45.640;11.756;2023-04-24T10:39:05;17.60;61.50
63017;DHT22;50274;45.640;11.756;2023-04-24T10:41:37;17.70;61.40
63017;DHT22;50274;45.640;11.756;2023-04-24T10:44:10;17.80;60.70
63017;DHT22;50274;45.640;11.756;2023-04-24T10:46:37;17.80;60.10
63017;DHT22;50274;45.640;11.756;2023-04-24T10:49:07;17.90;60.60
63017;DHT22;50274;45.640;11.756;2023-04-24T10:51:52;18.00;60.10
63017;DHT22;50274;45.640;11.756;2023-04-24T10:54:23;18.10;59.80
63017;DHT22;50274;45.640;11.756;2023-04-24T10:56:53;18.10;59.30
63017;DHT22;50274;45.640;11.756;2023-04-24T10:59:39;18.20;58.30
63017;DHT22;50274;45.640;11.756;2023-04-24T11:02:08;18.30;58.70
63017;DHT22;50274;45.640;11.756;2023-04-24T11:04:34;18.40;58.40
63017;DHT22;50274;45.640;11.756;2023-04-24T11:07:02;18.50;58.10
63017;DHT22;50274;45.640;11.756;2023-04-24T11:09:30;18.50;58.20
63017;DHT22;50274;45.640;11.756;2023-04-24T11:12:11;18.60;58.80
63017;DHT22;50274;45.640;11.756;2023-04-24T11:15:02;18.60;58.50
63017;DHT22;50274;45.640;11.756;2023-04-24T11:20:02;18.80;58.50
63017;DHT22;50274;45.640;11.756;2023-04-24T11:22:32;18.90;58.10
63017;DHT22;50274;45.640;11.756;2023-04-24T11:25:00;18.90;58.30
63017;DHT22;50274;45.640;11.756;2023-04-24T11:27:30;19.00;58.30
63017;DHT22;50274;45.640;11.756;2023-04-24T11:35:01;19.00;58.50
63017;DHT22;50274;45.640;11.756;2023-04-24T11:37:35;19.00;57.30
63017;DHT22;50274;45.640;11.756;2023-04-24T11:40:02;19.00;57.50
63017;DHT22;50274;45.640;11.756;2023-04-24T11:42:40;18.90;56.80
63017;DHT22;50274;45.640;11.756;2023-04-24T11:45:11;18.90;57.00
63017;DHT22;50274;45.640;11.756;2023-04-24T11:47:37;18.80;57.50
63017;DHT22;50274;45.640;11.756;2023-04-24T11:50:05;18.80;58.10
63017;DHT22;50274;45.640;11.756;2023-04-24T11:52:31;18.80;58.30
63017;DHT22;50274;45.640;11.756;2023-04-24T11:54:57;18.80;58.10
63017;DHT22;50274;45.640;11.756;2023-04-24T11:57:25;18.90;57.40
63017;DHT22;50274;45.640;11.756;2023-04-24T11:59:53;18.80;57.00
63017;DHT22;50274;45.640;11.756;2023-04-24T12:02:23;18.90;57.10
63017;DHT22;50274;45.640;11.756;2023-04-24T12:04:49;19.00;57.10
63017;DHT22;50274;45.640;11.756;2023-04-24T12:07:15;19.00;56.90
63017;DHT22;50274;45.640;11.756;2023-04-24T12:12:08;19.20;57.40
63017;DHT22;50274;45.640;11.756;2023-04-24T12:15:06;19.20;56.20
63017;DHT22;50274;45.640;11.756;2023-04-24T12:17:30;19.30;56.00
63017;DHT22;50274;45.640;11.756;2023-04-24T12:20:07;19.40;55.70
63017;DHT22;50274;45.640;11.756;2023-04-24T12:22:57;19.60;55.80
63017;DHT22;50274;45.640;11.756;2023-04-24T12:25:46;19.80;55.70
63017;DHT22;50274;45.640;11.756;2023-04-24T12:28:13;20.20;55.50
63017;DHT22;50274;45.640;11.756;2023-04-24T12:31:10;20.40;54.60
63017;DHT22;50274;45.640;11.756;2023-04-24T12:33:45;20.60;54.60
63017;DHT22;50274;45.640;11.756;2023-04-24T12:39:23;21.00;54.40
63017;DHT22;50274;45.640;11.756;2023-04-24T12:42:30;21.20;53.20
63017;DHT22;50274;45.640;11.756;2023-04-24T12:45:20;21.30;53.00
63017;DHT22;50274;45.640;11.756;2023-04-24T12:48:26;21.30;52.40
63017;DHT22;50274;45.640;11.756;2023-04-24T12:51:40;21.30;52.70
63017;DHT22;50274;45.640;11.756;2023-04-24T12:54:11;21.40;52.00
63017;DHT22;50274;45.640;11.756;2023-04-24T12:56:46;21.50;51.90
63017;DHT22;50274;45.640;11.756;2023-04-24T12:59:12;21.60;52.10
63017;DHT22;50274;45.640;11.756;2023-04-24T13:01:38;21.70;52.30
63017;DHT22;50274;45.640;11.756;2023-04-24T13:04:05;21.90;52.40
63017;DHT22;50274;45.640;11.756;2023-04-24T13:06:31;22.00;50.70
63017;DHT22;50274;45.640;11.756;2023-04-24T13:08:57;22.20;50.50
63017;DHT22;50274;45.640;11.756;2023-04-24T13:11:24;22.50;50.70
63017;DHT22;50274;45.640;11.756;2023-04-24T13:13:50;22.80;50.80
63017;DHT22;50274;45.640;11.756;2023-04-24T13:16:16;22.90;49.40
63017;DHT22;50274;45.640;11.756;2023-04-24T13:18:42;22.90;48.70
63017;DHT22;50274;45.640;11.756;2023-04-24T13:21:07;23.10;50.20
63017;DHT22;50274;45.640;11.756;2023-04-24T13:23:33;23.10;49.20
63017;DHT22;50274;45.640;11.756;2023-04-24T13:26:00;23.00;49.20
63017;DHT22;50274;45.640;11.756;2023-04-24T13:28:27;23.10;49.10
63017;DHT22;50274;45.640;11.756;2023-04-24T13:30:53;23.20;49.00
63017;DHT22;50274;45.640;11.756;2023-04-24T13:33:19;23.30;48.50
63017;DHT22;50274;45.640;11.756;2023-04-24T13:35:45;23.30;48.10
63017;DHT22;50274;45.640;11.756;2023-04-24T13:38:10;23.10;47.10
63017;DHT22;50274;45.640;11.756;2023-04-24T13:40:36;23.00;47.40
63017;DHT22;50274;45.640;11.756;2023-04-24T13:43:02;22.80;48.20
63017;DHT22;50274;45.640;11.756;2023-04-24T13:45:28;22.80;48.90
63017;DHT22;50274;45.640;11.756;2023-04-24T13:47:54;22.70;49.20
63017;DHT22;50274;45.640;11.756;2023-04-24T13:50:20;22.50;50.20
63017;DHT22;50274;45.640;11.756;2023-04-24T13:52:49;22.10;50.80
63017;DHT22;50274;45.640;11.756;2023-04-24T13:55:14;22.00;50.50
63017;DHT22;50274;45.640;11.756;2023-04-24T13:57:40;22.00;50.90
63017;DHT22;50274;45.640;11.756;2023-04-24T14:00:09;22.20;49.80
63017;DHT22;50274;45.640;11.756;2023-04-24T14:02:36;22.40;49.80
63017;DHT22;50274;45.640;11.756;2023-04-24T14:05:02;22.50;49.60
63017;DHT22;50274;45.640;11.756;2023-04-24T14:07:29;22.70;49.20
63017;DHT22;50274;45.640;11.756;2023-04-24T14:09:54;22.90;48.40
63017;DHT22;50274;45.640;11.756;2023-04-24T14:12:20;22.80;48.10
63017;DHT22;50274;45.640;11.756;2023-04-24T14:14:47;22.80;48.60
63017;DHT22;50274;45.640;11.756;2023-04-24T14:17:14;22.90;48.40
63017;DHT22;50274;45.640;11.756;2023-04-24T14:19:40;22.80;47.80
63017;DHT22;50274;45.640;11.756;2023-04-24T14:22:05;22.80;47.90
63017;DHT22;50274;45.640;11.756;2023-04-24T14:24:32;22.70;48.10
63017;DHT22;50274;45.640;11.756;2023-04-24T14:26:58;22.60;48.80
63017;DHT22;50274;45.640;11.756;2023-04-24T14:29:23;22.60;49.20
63017;DHT22;50274;45.640;11.756;2023-04-24T14:31:51;22.60;48.90
63017;DHT22;50274;45.640;11.756;2023-04-24T14:34:17;22.60;48.40
63017;DHT22;50274;45.640;11.756;2023-04-24T14:36:43;22.60;48.60
63017;DHT22;50274;45.640;11.756;2023-04-24T14:39:13;22.60;48.80
63017;DHT22;50274;45.640;11.756;2023-04-24T14:41:39;22.70;47.90
63017;DHT22;50274;45.640;11.756;2023-04-24T14:44:05;22.70;47.50
63017;DHT22;50274;45.640;11.756;2023-04-24T14:46:31;22.70;47.30
63017;DHT22;50274;45.640;11.756;2023-04-24T14:48:58;22.70;47.20
63017;DHT22;50274;45.640;11.756;2023-04-24T14:51:24;22.70;47.00
63017;DHT22;50274;45.640;11.756;2023-04-24T14:53:50;22.70;46.80
63017;DHT22;50274;45.640;11.756;2023-04-24T14:56:17;22.60;47.10
63017;DHT22;50274;45.640;11.756;2023-04-24T14:58:43;22.50;47.60
63017;DHT22;50274;45.640;11.756;2023-04-24T15:01:09;22.30;47.50
63017;DHT22;50274;45.640;11.756;2023-04-24T15:03:38;22.30;47.60
63017;DHT22;50274;45.640;11.756;2023-04-24T15:06:04;22.20;46.80
63017;DHT22;50274;45.640;11.756;2023-04-24T15:08:32;22.10;47.40
63017;DHT22;50274;45.640;11.756;2023-04-24T15:11:04;22.00;48.20
63017;DHT22;50274;45.640;11.756;2023-04-24T15:13:29;22.00;48.50
63017;DHT22;50274;45.640;11.756;2023-04-24T15:15:55;21.90;48.40
63017;DHT22;50274;45.640;11.756;2023-04-24T15:18:21;21.90;48.80
63017;DHT22;50274;45.640;11.756;2023-04-24T15:20:47;21.90;48.90
63017;DHT22;50274;45.640;11.756;2023-04-24T15:23:15;21.80;49.10
63017;DHT22;50274;45.640;11.756;2023-04-24T15:25:46;21.70;49.50
63017;DHT22;50274;45.640;11.756;2023-04-24T15:28:12;21.60;50.40
63017;DHT22;50274;45.640;11.756;2023-04-24T15:30:40;21.30;50.90